Time;durP1;ratioP1;P1;durP2;ratioP2;P2;SDS_P1;SDS_P2;PMS_P1;PMS_P2;Temp;Humidity;BMP_temperature;BMP_pressure;BME280_temperature;BME280_humidity;BME280_pressure;Samples;Min_cycle;Max_cycle;Signal;HPM_P1;HPM_P2
2023/06/09 00:01:17;;;;;;;9.18;4.18;;;;;;;11.22;100.00;101812.09;6252017;23;20035;-82
2023/06/09 00:04:03;;;;;;;9.38;4.88;;;;;;;11.22;100.00;101819.22;6229916;23;20123;-80
2023/06/09 00:06:46;;;;;;;11.88;4.30;;;;;;;11.27;100.00;101819.91;6208855;23;20015;-81
2023/06/09 00:09:30;;;;;;;9.85;4.38;;;;;;;11.28;100.00;101822.50;6241356;23;20085;-80
2023/06/09 00:12:14;;;;;;;12.77;4.72;;;;;;;11.28;100.00;101825.16;6253673;23;20019;-82
2023/06/09 00:14:58;;;;;;;15.57;4.93;;;;;;;11.26;100.00;101812.88;6244634;23;20030;-81
2023/06/09 00:17:43;;;;;;;14.35;4.72;;;;;;;11.26;100.00;101812.88;6250849;23;20015;-83
2023/06/09 00:20:33;;;;;;;8.07;4.18;;;;;;;11.24;100.00;101798.81;6220000;23;20364;-82
2023/06/09 00:23:17;;;;;;;12.30;4.75;;;;;;;11.25;100.00;101805.84;6253511;23;20015;-80
2023/06/09 00:26:01;;;;;;;12.85;4.75;;;;;;;11.23;100.00;101797.94;6241056;23;20030;-83
2023/06/09 00:28:45;;;;;;;10.95;4.45;;;;;;;11.25;100.00;101800.53;6239522;23;20015;-83
2023/06/09 00:31:29;;;;;;;9.27;4.38;;;;;;;11.22;100.00;101793.53;6250943;23;20105;-81
2023/06/09 00:34:13;;;;;;;9.27;4.75;;;;;;;11.23;100.00;101789.97;6251045;23;20069;-85
2023/06/09 00:36:58;;;;;;;9.48;4.10;;;;;;;11.23;100.00;101797.94;6229409;23;20027;-83
2023/06/09 00:39:42;;;;;;;12.00;4.43;;;;;;;11.24;100.00;101799.66;6250552;23;20035;-82
2023/06/09 00:42:26;;;;;;;12.32;5.32;;;;;;;11.23;100.00;101797.94;6252701;23;20042;-83
2023/06/09 00:45:10;;;;;;;14.10;5.00;;;;;;;11.23;100.00;101797.94;6225564;23;20475;-81
2023/06/09 00:47:54;;;;;;;7.40;4.10;;;;;;;11.21;100.00;101806.84;6252240;23;20031;-81
2023/06/09 00:50:39;;;;;;;13.63;4.47;;;;;;;11.20;100.00;101807.75;6254092;23;20031;-83
2023/06/09 00:53:26;;;;;;;11.55;4.63;;;;;;;11.20;100.00;101802.47;6251765;23;20031;-83
2023/06/09 00:56:12;;;;;;;10.60;4.90;;;;;;;11.19;100.00;101798.97;6220736;23;20046;-82
2023/06/09 00:58:55;;;;;;;11.63;4.70;;;;;;;11.18;100.00;101805.19;6254195;23;20027;-80
2023/06/09 01:01:40;;;;;;;9.93;4.65;;;;;;;11.17;100.00;101803.44;6231327;23;20116;-81
2023/06/09 01:04:24;;;;;;;13.45;4.97;;;;;;;11.17;100.00;101808.72;6254421;23;20027;-78
2023/06/09 01:07:24;;;;;;;9.77;4.53;;;;;;;11.15;100.00;101815.88;6252007;23;20063;-78
2023/06/09 01:10:23;;;;;;;15.05;5.55;;;;;;;11.16;100.00;101814.94;6249955;23;20078;-83
2023/06/09 01:13:25;;;;;;;12.75;4.55;;;;;;;11.18;100.00;101807.84;6251737;23;20010;-82
2023/06/09 01:16:15;;;;;;;9.55;4.85;;;;;;;11.21;100.00;101805.06;6242064;23;20066;-81
2023/06/09 01:19:01;;;;;;;12.10;4.93;;;;;;;11.22;100.00;101793.53;6252071;23;20010;-83
2023/06/09 01:21:46;;;;;;;8.65;4.38;;;;;;;11.28;100.00;101796.00;6229877;23;20026;-83
2023/06/09 01:24:46;;;;;;;12.35;4.78;;;;;;;11.32;100.00;101787.97;6219930;23;20018;-81
2023/06/09 01:27:32;;;;;;;10.30;4.60;;;;;;;11.34;100.00;101791.41;6252490;23;20095;-82
2023/06/09 01:30:18;;;;;;;8.13;4.28;;;;;;;11.36;100.00;101785.16;6229005;23;20077;-81
2023/06/09 01:33:07;;;;;;;9.00;4.00;;;;;;;11.37;100.00;101784.22;6252564;23;20034;-77
2023/06/09 01:35:52;;;;;;;10.75;4.28;;;;;;;11.39;100.00;101785.03;6251428;23;20070;-82
2023/06/09 01:38:37;;;;;;;8.00;4.30;;;;;;;11.43;100.00;101787.59;6196580;23;20026;-82
2023/06/09 01:41:21;;;;;;;12.23;4.32;;;;;;;11.44;100.00;101782.22;6229081;23;20030;-83
2023/06/09 01:44:06;;;;;;;8.15;4.10;;;;;;;11.46;100.00;101772.44;6207018;23;20023;-83
2023/06/09 01:46:50;;;;;;;5.95;3.92;;;;;;;11.47;100.00;101768.88;6208197;23;20073;-82
2023/06/09 01:49:48;;;;;;;10.60;4.05;;;;;;;11.46;100.00;101767.13;6251821;23;20031;-82
2023/06/09 01:52:35;;;;;;;9.52;3.95;;;;;;;11.46;100.00;101775.09;6231045;23;20141;-82
2023/06/09 01:55:22;;;;;;;12.95;4.50;;;;;;;11.46;100.00;101766.25;6253944;23;20019;-84
2023/06/09 01:58:27;;;;;;;7.53;4.10;;;;;;;11.46;100.00;101764.50;6229341;23;20019;-83
2023/06/09 02:01:18;;;;;;;11.43;4.65;;;;;;;11.43;100.00;101761.94;6251251;23;20475;-82
2023/06/09 02:04:05;;;;;;;8.60;4.10;;;;;;;11.44;100.00;101754.84;6218745;23;20011;-83
2023/06/09 02:06:49;;;;;;;8.00;3.72;;;;;;;11.40;100.00;101751.44;6230270;23;20023;-82
2023/06/09 02:09:34;;;;;;;9.52;4.10;;;;;;;11.39;100.00;101755.03;6233277;23;20050;-79
2023/06/09 02:12:18;;;;;;;10.02;3.97;;;;;;;11.38;100.00;101755.91;6255514;23;20085;-83
2023/06/09 02:15:04;;;;;;;11.90;4.95;;;;;;;11.40;100.00;101757.59;6221936;23;20513;-81
2023/06/09 02:17:48;;;;;;;9.10;4.07;;;;;;;11.39;100.00;101753.22;6243564;23;20035;-82
2023/06/09 02:20:32;;;;;;;12.10;5.10;;;;;;;11.37;100.00;101752.41;6253721;23;20019;-82
2023/06/09 02:23:19;;;;;;;8.48;4.03;;;;;;;11.39;100.00;101752.38;6252969;23;20430;-83
2023/06/09 02:26:03;;;;;;;11.57;4.32;;;;;;;11.38;100.00;101758.56;6228990;23;20010;-81
2023/06/09 02:28:47;;;;;;;11.20;4.75;;;;;;;11.36;100.00;101753.34;6252688;23;20118;-83
2023/06/09 02:31:31;;;;;;;10.48;4.53;;;;;;;11.35;100.00;101748.97;6253885;23;20037;-78
2023/06/09 02:34:16;;;;;;;10.90;4.40;;;;;;;11.34;100.00;101749.00;6253093;23;20081;-84
2023/06/09 02:37:02;;;;;;;13.40;5.13;;;;;;;11.33;100.00;101744.63;6251971;23;20022;-82
2023/06/09 02:39:46;;;;;;;9.75;5.03;;;;;;;11.31;100.00;101739.38;6219843;23;20071;-82
2023/06/09 02:42:30;;;;;;;9.98;4.40;;;;;;;11.33;100.00;101734.03;6228757;23;20042;-83
2023/06/09 02:45:14;;;;;;;9.43;4.68;;;;;;;11.32;100.00;101729.63;6246254;23;20031;-84
2023/06/09 02:47:58;;;;;;;12.38;5.22;;;;;;;11.34;100.00;101727.78;6252178;23;20031;-83
2023/06/09 02:50:42;;;;;;;8.02;5.20;;;;;;;11.35;100.00;101726.88;6251830;23;20055;-82
2023/06/09 02:53:28;;;;;;;8.50;4.90;;;;;;;11.34;100.00;101719.84;6251812;23;20093;-80
2023/06/09 02:56:12;;;;;;;11.20;4.93;;;;;;;11.36;100.00;101733.91;6241017;23;20039;-81
2023/06/09 02:58:57;;;;;;;14.95;5.20;;;;;;;11.35;100.00;101730.41;6217840;23;20031;-82
2023/06/09 03:01:42;;;;;;;10.55;4.72;;;;;;;11.36;100.00;101731.25;6252624;23;20058;-82
2023/06/09 03:04:26;;;;;;;13.23;5.53;;;;;;;11.34;100.00;101715.38;6252483;23;20087;-82
2023/06/09 03:07:13;;;;;;;12.55;5.80;;;;;;;11.33;100.00;101720.75;6253092;23;20191;-82
2023/06/09 03:09:59;;;;;;;12.70;5.30;;;;;;;11.34;100.00;101719.84;6230584;23;20070;-80
2023/06/09 03:12:43;;;;;;;16.35;5.25;;;;;;;11.32;100.00;101714.56;6252000;23;20031;-80
2023/06/09 03:15:28;;;;;;;14.23;5.60;;;;;;;11.30;100.00;101713.78;6242784;23;20110;-81
2023/06/09 03:18:13;;;;;;;15.40;5.60;;;;;;;11.30;100.00;101716.44;6243122;23;20057;-79
2023/06/09 03:21:04;;;;;;;15.30;5.82;;;;;;;11.30;100.00;101724.38;6230184;23;20020;-83
2023/06/09 03:23:48;;;;;;;13.70;5.70;;;;;;;11.30;100.00;101720.84;6252875;23;20050;-80
2023/06/09 03:26:32;;;;;;;12.05;5.18;;;;;;;11.27;100.00;101720.03;6252439;23;20467;-81
2023/06/09 03:29:16;;;;;;;11.48;6.00;;;;;;;11.25;100.00;101711.28;6239443;23;20521;-81
2023/06/09 03:32:00;;;;;;;11.95;5.53;;;;;;;11.24;100.00;101719.28;6240124;23;20018;-82
2023/06/09 03:34:44;;;;;;;11.82;6.68;;;;;;;11.24;100.00;101717.47;6241961;23;20101;-81
2023/06/09 03:37:28;;;;;;;15.52;6.28;;;;;;;11.25;100.00;101715.72;6250430;23;20019;-83
2023/06/09 03:40:15;;;;;;;13.60;5.80;;;;;;;11.24;100.00;101717.47;6251503;23;20058;-83
2023/06/09 03:42:58;;;;;;;15.27;5.90;;;;;;;11.24;100.00;101730.75;6249113;23;20038;-81
2023/06/09 03:45:42;;;;;;;11.77;5.70;;;;;;;11.26;100.00;101722.75;6242775;23;20028;-78
2023/06/09 03:48:26;;;;;;;14.98;5.88;;;;;;;11.26;100.00;101718.31;6226276;23;20065;-79
2023/06/09 03:51:10;;;;;;;12.45;6.07;;;;;;;11.25;100.00;101724.53;6226627;23;20054;-82
2023/06/09 03:53:54;;;;;;;11.38;5.88;;;;;;;11.28;100.00;101726.22;6251722;23;20054;-82
2023/06/09 03:56:38;;;;;;;14.30;5.43;;;;;;;11.29;100.00;101725.31;6252547;23;20061;-81
2023/06/09 03:59:22;;;;;;;14.15;5.32;;;;;;;11.30;100.00;101720.84;6228568;23;20015;-81
2023/06/09 04:02:06;;;;;;;15.40;5.45;;;;;;;11.32;100.00;101732.28;6249679;23;20058;-82
2023/06/09 04:04:51;;;;;;;10.20;5.00;;;;;;;11.33;100.00;101729.56;6250252;23;20019;-82
2023/06/09 04:07:35;;;;;;;11.45;5.55;;;;;;;11.32;100.00;101727.84;6227874;23;20118;-83
2023/06/09 04:10:19;;;;;;;15.35;5.90;;;;;;;11.36;100.00;101728.59;6250611;23;20571;-83
2023/06/09 04:13:03;;;;;;;12.23;5.47;;;;;;;11.38;100.00;101721.44;6251773;23;20035;-83
2023/06/09 04:15:47;;;;;;;9.68;5.28;;;;;;;11.40;100.00;101724.94;6243492;23;20019;-82
2023/06/09 04:18:31;;;;;;;12.98;5.15;;;;;;;11.40;100.00;101722.28;6252763;23;20034;-80
2023/06/09 04:21:15;;;;;;;11.68;5.72;;;;;;;11.43;100.00;101726.63;6228459;23;20046;-82
2023/06/09 04:23:59;;;;;;;14.50;5.95;;;;;;;11.44;100.00;101731.84;6241457;23;20027;-84
2023/06/09 04:26:44;;;;;;;13.05;5.97;;;;;;;11.48;100.00;101722.88;6229008;23;20430;-83
2023/06/09 04:29:28;;;;;;;9.52;5.75;;;;;;;11.50;100.00;101734.28;6217070;23;20111;-84
2023/06/09 04:32:12;;;;;;;11.55;5.68;;;;;;;11.54;100.00;101727.97;6250826;23;20663;-82
2023/06/09 04:34:56;;;;;;;13.90;5.35;;;;;;;11.60;100.00;101728.66;6250252;23;20051;-81
2023/06/09 04:37:40;;;;;;;12.75;5.43;;;;;;;11.64;100.00;101723.19;6250631;23;20034;-83
2023/06/09 04:40:25;;;;;;;9.48;5.13;;;;;;;11.68;100.00;101721.28;6250615;23;20357;-81
2023/06/09 04:43:10;;;;;;;15.40;6.10;;;;;;;11.73;100.00;101721.13;6250027;23;20026;-83
2023/06/09 04:45:55;;;;;;;14.00;5.70;;;;;;;11.76;100.00;101726.34;6241745;23;20114;-83
2023/06/09 04:48:41;;;;;;;12.35;5.75;;;;;;;11.80;100.00;101728.81;6250393;23;20015;-82
2023/06/09 04:51:26;;;;;;;10.80;5.40;;;;;;;11.86;100.00;101732.13;6228686;23;20031;-82
2023/06/09 04:54:10;;;;;;;12.98;5.20;;;;;;;11.92;100.00;101726.59;6249850;23;20031;-81
2023/06/09 04:56:57;;;;;;;15.38;6.13;;;;;;;11.97;100.00;101729.97;6251246;23;20792;-83
2023/06/09 04:59:41;;;;;;;13.88;5.88;;;;;;;12.04;100.00;101736.81;6250325;23;20039;-81
2023/06/09 05:02:25;;;;;;;13.68;6.50;;;;;;;12.12;100.00;101727.69;6249389;23;20066;-82
2023/06/09 05:05:09;;;;;;;12.02;5.72;;;;;;;12.18;100.00;101730.09;6249738;23;20046;-79
2023/06/09 05:07:53;;;;;;;12.70;5.68;;;;;;;12.27;100.00;101729.78;6249701;23;20715;-81
2023/06/09 05:10:37;;;;;;;11.15;6.00;;;;;;;12.35;100.00;101724.16;6250496;23;20019;-80
2023/06/09 05:13:21;;;;;;;10.38;5.10;;;;;;;12.43;100.00;101729.16;6239830;23;20511;-81
2023/06/09 05:16:05;;;;;;;9.60;5.07;;;;;;;12.56;100.00;101734.84;6217030;23;20019;-80
2023/06/09 05:18:49;;;;;;;12.38;5.72;;;;;;;12.63;100.00;101736.34;6249320;23;20046;-82
2023/06/09 05:21:33;;;;;;;10.95;5.80;;;;;;;12.74;100.00;101738.56;6251579;23;20062;-81
2023/06/09 05:24:17;;;;;;;12.85;5.15;;;;;;;12.85;100.00;101735.50;6250836;23;20042;-81
2023/06/09 05:27:01;;;;;;;14.18;5.80;;;;;;;12.96;100.00;101741.22;6252945;23;20073;-82
2023/06/09 05:29:45;;;;;;;11.98;5.55;;;;;;;13.13;100.00;101745.81;6242516;23;20031;-79
2023/06/09 05:32:29;;;;;;;13.20;6.20;;;;;;;13.23;100.00;101748.97;6251969;23;20015;-84
2023/06/09 05:35:13;;;;;;;12.05;6.10;;;;;;;13.38;100.00;101755.44;6230673;23;20096;-84
2023/06/09 05:37:57;;;;;;;11.57;5.47;;;;;;;13.50;100.00;101762.03;6252782;23;20107;-83
2023/06/09 05:40:41;;;;;;;11.38;5.50;;;;;;;13.65;100.00;101762.31;6253524;23;20068;-81
2023/06/09 05:43:26;;;;;;;12.02;6.07;;;;;;;13.79;100.00;101757.22;6230010;23;20098;-82
2023/06/09 05:46:11;;;;;;;12.60;6.32;;;;;;;13.92;100.00;101751.38;6243496;23;20031;-84
2023/06/09 05:48:55;;;;;;;13.30;5.93;;;;;;;14.00;100.00;101749.22;6253478;23;20015;-83
2023/06/09 05:51:39;;;;;;;14.35;6.63;;;;;;;14.12;100.00;101746.00;6232528;23;20031;-84
2023/06/09 05:54:23;;;;;;;12.68;5.95;;;;;;;14.30;100.00;101758.53;6222696;23;20525;-83
2023/06/09 05:57:09;;;;;;;10.88;5.65;;;;;;;14.48;100.00;101760.31;6213646;23;20071;-83
2023/06/09 05:59:53;;;;;;;11.48;5.68;;;;;;;14.59;100.00;101757.16;6211013;23;20016;-83
2023/06/09 06:02:40;;;;;;;10.73;5.53;;;;;;;14.69;100.00;101752.25;6223322;23;20032;-82
2023/06/09 06:05:24;;;;;;;11.77;5.90;;;;;;;14.77;100.00;101752.75;6223108;23;20071;-83
2023/06/09 06:08:08;;;;;;;12.68;5.55;;;;;;;14.96;100.00;101751.84;6212697;23;20551;-82
2023/06/09 06:10:52;;;;;;;10.60;5.20;;;;;;;15.15;100.00;101753.63;6223348;23;20051;-82
2023/06/09 06:13:37;;;;;;;11.60;4.85;;;;;;;15.22;100.00;101755.03;6190955;23;20632;-82
2023/06/09 06:16:20;;;;;;;10.43;5.38;;;;;;;15.30;100.00;101750.16;6212410;23;20011;-83
2023/06/09 06:19:05;;;;;;;8.80;4.82;;;;;;;15.48;100.00;101744.81;6223706;23;20031;-80
2023/06/09 06:21:50;;;;;;;11.20;4.60;;;;;;;15.58;100.00;101750.53;6222911;23;20070;-81
2023/06/09 06:24:35;;;;;;;6.68;4.43;;;;;;;15.73;100.00;101751.53;6214137;23;20031;-82
2023/06/09 06:27:18;;;;;;;10.88;4.78;;;;;;;15.83;100.00;101755.44;6212388;23;20063;-81
2023/06/09 06:30:03;;;;;;;8.75;4.57;;;;;;;15.93;100.00;101755.84;6213962;23;20488;-81
2023/06/09 06:32:51;;;;;;;6.43;4.40;;;;;;;16.10;100.00;101751.38;6221487;23;20067;-82
2023/06/09 06:35:35;;;;;;;7.90;4.22;;;;;;;16.29;100.00;101752.09;6231421;23;20082;-81
2023/06/09 06:38:19;;;;;;;8.95;4.35;;;;;;;16.48;100.00;101750.22;6221949;23;20054;-79
2023/06/09 06:41:04;;;;;;;9.60;3.95;;;;;;;16.55;100.00;101746.25;6220950;23;20023;-75
2023/06/09 06:43:49;;;;;;;11.13;4.85;;;;;;;16.64;100.00;101745.75;6210880;23;20019;-80
2023/06/09 06:46:34;;;;;;;12.38;4.80;;;;;;;16.74;100.00;101748.75;6221631;23;20096;-77
2023/06/09 06:49:18;;;;;;;11.45;4.82;;;;;;;16.83;100.00;101750.00;6216651;23;20019;-77
2023/06/09 06:52:02;;;;;;;10.63;4.47;;;;;;;16.95;100.00;101746.63;6239875;23;20030;-75
2023/06/09 06:54:46;;;;;;;8.07;4.22;;;;;;;17.07;100.00;101742.44;6238599;23;20035;-77
2023/06/09 06:57:29;;;;;;;7.57;4.32;;;;;;;17.12;100.00;101739.47;6237287;23;20085;-77
2023/06/09 07:00:15;;;;;;;7.45;4.03;;;;;;;17.29;100.00;101740.28;6247796;23;20806;-79
2023/06/09 07:02:59;;;;;;;9.60;4.20;;;;;;;17.41;100.00;101736.88;6237072;23;20516;-78
2023/06/09 07:05:43;;;;;;;9.45;4.15;;;;;;;17.47;100.00;101733.81;6248173;23;20015;-78
2023/06/09 07:08:27;;;;;;;8.98;4.55;;;;;;;17.59;100.00;101736.72;6248058;23;20031;-78
2023/06/09 07:11:11;;;;;;;10.20;4.97;;;;;;;17.65;100.00;101730.94;6247305;23;20086;-77
2023/06/09 07:13:55;;;;;;;7.88;4.32;;;;;;;17.73;100.00;101739.41;6194066;23;20031;-77
2023/06/09 07:16:40;;;;;;;7.00;4.70;;;;;;;17.70;100.00;101734.22;6238301;23;20546;-77
2023/06/09 07:19:24;;;;;;;10.85;4.57;;;;;;;17.80;100.00;101730.97;6217017;23;20507;-76
2023/06/09 07:22:08;;;;;;;12.25;4.90;;;;;;;17.94;100.00;101730.97;6239975;23;20019;-80
2023/06/09 07:24:53;;;;;;;9.00;4.45;;;;;;;18.08;100.00;101732.81;6250103;23;20027;-79
2023/06/09 07:27:39;;;;;;;10.70;4.88;;;;;;;18.10;100.00;101732.72;6247912;23;20019;-83
2023/06/09 07:30:26;;;;;;;9.23;4.40;;;;;;;18.19;100.00;101734.78;6248971;23;20101;-80
2023/06/09 07:33:10;;;;;;;8.90;4.88;;;;;;;18.29;100.00;101735.94;6248128;23;20023;-80
2023/06/09 07:35:54;;;;;;;11.30;5.10;;;;;;;18.38;100.00;101729.13;6247552;23;20105;-77
2023/06/09 07:38:44;;;;;;;8.57;3.97;;;;;;;18.48;100.00;101742.81;6237772;23;20101;-80
2023/06/09 07:41:29;;;;;;;8.80;4.85;;;;;;;18.50;100.00;101738.19;6237034;23;20031;-81
2023/06/09 07:44:13;;;;;;;12.98;5.10;;;;;;;18.56;100.00;101735.13;6249620;23;20070;-81
2023/06/09 07:46:57;;;;;;;8.75;4.47;;;;;;;18.63;100.00;101743.59;6249116;23;20694;-81
2023/06/09 07:49:41;;;;;;;9.82;4.13;;;;;;;18.68;100.00;101741.47;6249311;23;20077;-80
2023/06/09 07:52:26;;;;;;;12.75;4.68;;;;;;;18.80;100.00;101742.47;6248574;23;20105;-82
2023/06/09 07:55:10;;;;;;;8.77;4.57;;;;;;;18.95;100.00;101745.13;6247936;23;20035;-83
2023/06/09 07:57:55;;;;;;;12.73;4.40;;;;;;;19.10;100.00;101735.19;6249244;23;20027;-82
2023/06/09 08:00:38;;;;;;;9.40;4.45;;;;;;;19.15;100.00;101749.16;6238157;23;20027;-80
2023/06/09 08:03:22;;;;;;;9.38;4.65;;;;;;;19.33;100.00;101746.22;6249341;23;20050;-80
2023/06/09 08:06:08;;;;;;;6.57;4.13;;;;;;;19.48;100.00;101746.97;6215148;23;20336;-81
2023/06/09 08:08:52;;;;;;;10.77;4.30;;;;;;;19.68;100.00;101746.44;6248808;23;20105;-79
2023/06/09 08:11:38;;;;;;;8.15;4.18;;;;;;;19.83;100.00;101749.00;6237645;23;20176;-81
2023/06/09 08:14:22;;;;;;;7.30;4.13;;;;;;;19.89;100.00;101742.34;6237531;23;20483;-81
2023/06/09 08:17:06;;;;;;;11.52;4.57;;;;;;;19.99;100.00;101748.78;6248816;23;20019;-80
2023/06/09 08:19:49;;;;;;;7.93;4.07;;;;;;;20.05;100.00;101743.00;6247942;23;20275;-81
2023/06/09 08:22:34;;;;;;;6.07;3.90;;;;;;;20.14;100.00;101736.09;6250977;23;20058;-79
2023/06/09 08:25:18;;;;;;;12.38;3.80;;;;;;;20.31;100.00;101744.75;6223738;23;20082;-77
2023/06/09 08:28:02;;;;;;;6.78;4.00;;;;;;;20.52;100.00;101745.00;6235921;23;20623;-80
2023/06/09 08:30:49;;;;;;;7.47;3.95;;;;;;;20.66;100.00;101735.94;6239404;23;20082;-79
2023/06/09 08:33:33;;;;;;;7.90;4.15;;;;;;;20.80;100.00;101732.19;6239034;23;20022;-77
2023/06/09 08:36:18;;;;;;;9.35;3.88;;;;;;;20.91;95.10;101734.09;6252736;23;20027;-80
2023/06/09 08:39:02;;;;;;;8.45;4.13;;;;;;;20.85;99.05;101730.06;6248572;23;20684;-80
2023/06/09 08:41:51;;;;;;;6.95;3.83;;;;;;;20.94;98.07;101731.19;6227589;23;20050;-82
2023/06/09 08:44:39;;;;;;;8.13;3.35;;;;;;;21.08;96.73;101735.50;6248671;23;20061;-79
2023/06/09 08:47:26;;;;;;;7.38;3.88;;;;;;;21.13;97.82;101730.63;6227718;23;20692;-79
2023/06/09 08:50:13;;;;;;;7.07;4.28;;;;;;;21.18;93.45;101730.28;6236279;23;20019;-78
2023/06/09 08:53:00;;;;;;;7.47;3.85;;;;;;;21.27;97.41;101728.72;6226412;23;20031;-78
2023/06/09 08:55:44;;;;;;;6.53;4.05;;;;;;;21.38;97.54;101719.81;6199377;23;20098;-78
2023/06/09 08:58:29;;;;;;;5.75;3.80;;;;;;;21.42;96.52;101727.53;6247893;23;20031;-78
2023/06/09 09:01:14;;;;;;;4.07;3.38;;;;;;;21.51;97.23;101723.25;6206287;23;20130;-79
2023/06/09 09:03:58;;;;;;;6.40;4.07;;;;;;;21.69;96.43;101722.81;6229121;23;20107;-77
2023/06/09 09:06:43;;;;;;;7.78;3.78;;;;;;;21.77;94.16;101730.28;6242300;23;20019;-80
2023/06/09 09:09:27;;;;;;;5.25;3.55;;;;;;;21.77;94.76;101722.19;6250970;23;20074;-80
2023/06/09 09:12:14;;;;;;;9.80;4.20;;;;;;;21.90;94.80;101719.41;6251696;23;20061;-77
2023/06/09 09:14:58;;;;;;;8.32;3.72;;;;;;;21.98;91.46;101716.94;6220478;23;20031;-80
2023/06/09 09:17:49;;;;;;;7.72;4.07;;;;;;;22.10;94.13;101718.66;6230643;23;20015;-78
2023/06/09 09:20:39;;;;;;;9.30;4.40;;;;;;;22.15;89.41;101726.34;6219449;23;20070;-81
2023/06/09 09:23:31;;;;;;;9.02;4.30;;;;;;;22.17;88.07;101721.69;6248339;23;20015;-80
2023/06/09 09:26:26;;;;;;;8.48;3.85;;;;;;;22.22;89.14;101719.47;6246993;23;20069;-80
2023/06/09 09:29:10;;;;;;;5.32;3.92;;;;;;;22.45;89.53;101715.88;6252775;23;20077;-79
2023/06/09 09:31:59;;;;;;;4.97;3.65;;;;;;;22.65;87.88;101720.50;6230281;23;20074;-79
2023/06/09 09:34:46;;;;;;;6.78;3.92;;;;;;;22.75;87.14;101717.91;6232710;23;20478;-78
2023/06/09 09:37:30;;;;;;;8.23;3.78;;;;;;;22.84;85.56;101720.78;6229225;23;20031;-76
2023/06/09 09:40:15;;;;;;;8.25;4.15;;;;;;;22.84;85.06;101718.97;6208890;23;20069;-76
2023/06/09 09:43:01;;;;;;;8.60;4.35;;;;;;;22.97;85.03;101712.50;6218962;23;20027;-76
2023/06/09 09:45:47;;;;;;;7.57;3.80;;;;;;;23.05;83.42;101713.56;6255895;23;20126;-75
2023/06/09 09:48:32;;;;;;;7.88;4.22;;;;;;;23.10;82.82;101713.16;6222866;23;20023;-75
2023/06/09 09:51:16;;;;;;;8.32;4.20;;;;;;;23.08;83.59;101714.31;6229328;23;20066;-76
2023/06/09 09:54:01;;;;;;;8.20;3.75;;;;;;;23.13;83.13;101717.44;6229434;23;20026;-76
2023/06/09 09:56:46;;;;;;;8.82;4.00;;;;;;;23.18;83.35;101718.78;6243333;23;20657;-76
2023/06/09 09:59:30;;;;;;;5.85;3.90;;;;;;;23.23;81.89;101712.13;6250167;23;20026;-75
2023/06/09 10:02:22;;;;;;;6.93;4.13;;;;;;;23.25;80.32;101711.00;6252629;23;20467;-77
2023/06/09 10:05:07;;;;;;;8.15;3.90;;;;;;;23.36;81.32;101709.25;6229666;23;20026;-76
2023/06/09 10:07:55;;;;;;;5.97;3.67;;;;;;;23.43;80.50;101707.75;6252560;23;20042;-77
2023/06/09 10:10:39;;;;;;;7.10;4.10;;;;;;;23.50;80.18;101708.91;6219962;23;20810;-80
2023/06/09 10:13:44;;;;;;;7.80;3.58;;;;;;;23.62;80.68;101696.16;6254508;23;20066;-78
2023/06/09 10:16:29;;;;;;;5.50;3.47;;;;;;;23.73;79.46;101706.88;6216999;23;20022;-81
2023/06/09 10:19:14;;;;;;;6.65;3.80;;;;;;;23.72;78.17;101697.06;6216271;23;20070;-77
2023/06/09 10:22:01;;;;;;;6.43;3.53;;;;;;;23.73;78.65;101704.19;6181549;23;20084;-77
2023/06/09 10:24:46;;;;;;;6.18;3.85;;;;;;;23.89;79.23;101697.41;6226373;23;20089;-75
2023/06/09 10:27:31;;;;;;;5.72;3.60;;;;;;;23.98;78.35;101696.56;6207952;23;20031;-75
2023/06/09 10:30:15;;;;;;;6.88;3.95;;;;;;;24.09;77.58;101700.19;6195227;23;20062;-75
2023/06/09 10:33:13;;;;;;;5.45;4.00;;;;;;;24.16;74.90;101698.66;6207151;23;20110;-75
2023/06/09 10:35:59;;;;;;;5.80;3.70;;;;;;;24.09;76.83;101697.50;6228522;23;20015;-74
2023/06/09 10:38:45;;;;;;;7.70;3.38;;;;;;;24.10;76.61;101696.50;6229111;23;20436;-75
2023/06/09 10:41:40;;;;;;;7.85;3.85;;;;;;;24.08;74.76;101693.94;6251029;23;20015;-75
2023/06/09 10:44:24;;;;;;;7.32;3.78;;;;;;;24.10;77.21;101694.66;6228074;23;20027;-75
2023/06/09 10:47:09;;;;;;;7.20;3.92;;;;;;;24.18;77.04;101696.66;6246794;23;20255;-76
2023/06/09 10:49:55;;;;;;;5.80;3.55;;;;;;;24.28;76.54;101702.09;6204299;23;20104;-76
2023/06/09 10:52:38;;;;;;;9.00;3.85;;;;;;;24.32;76.31;101686.44;6239563;23;20074;-74
2023/06/09 10:55:27;;;;;;;6.65;3.63;;;;;;;24.39;74.41;101692.97;6249918;23;20546;-78
2023/06/09 10:58:39;;;;;;;6.15;3.55;;;;;;;24.34;69.68;101687.16;6199073;23;20321;-78
2023/06/09 11:01:26;;;;;;;7.17;4.43;;;;;;;24.30;73.41;101683.88;6255027;22;20537;-80
2023/06/09 11:04:43;;;;;;;6.20;4.22;;;;;;;24.33;73.32;101689.00;6236888;22;20030;-78
2023/06/09 11:07:29;;;;;;;6.47;3.92;;;;;;;24.42;75.09;101688.16;6279720;22;20509;-78
2023/06/09 11:10:13;;;;;;;7.35;3.88;;;;;;;24.44;73.40;101685.31;6225548;22;20423;-77
2023/06/09 11:12:57;;;;;;;7.35;4.05;;;;;;;24.44;74.01;101685.31;6269463;22;20045;-79
2023/06/09 11:16:02;;;;;;;5.15;3.63;;;;;;;24.54;69.96;101686.19;6268239;22;20017;-79
2023/06/09 11:18:46;;;;;;;5.32;3.55;;;;;;;24.59;73.40;101677.63;6247286;22;20030;-82
2023/06/09 11:21:30;;;;;;;6.80;4.47;;;;;;;24.55;72.36;101676.19;6223761;22;20018;-74
2023/06/09 11:24:14;;;;;;;7.10;4.35;;;;;;;24.62;73.22;101681.91;6234335;22;20028;-75
2023/06/09 11:27:19;;;;;;;7.00;3.90;;;;;;;24.75;68.84;101670.78;6222231;22;20108;-76
2023/06/09 11:30:08;;;;;;;5.07;3.78;;;;;;;24.83;69.86;101678.22;6278077;22;20099;-77
2023/06/09 11:32:52;;;;;;;7.38;4.60;;;;;;;24.77;70.51;101669.66;6278101;22;20065;-76
2023/06/09 11:35:40;;;;;;;6.60;4.00;;;;;;;24.79;71.27;101666.81;6266107;22;20422;-75
2023/06/09 11:38:24;;;;;;;7.30;4.15;;;;;;;24.91;70.77;101664.81;6242540;22;20026;-79
2023/06/09 11:41:11;;;;;;;5.68;3.60;;;;;;;25.02;71.03;101661.09;6253510;22;20026;-75
2023/06/09 11:43:56;;;;;;;6.25;3.88;;;;;;;25.03;69.49;101658.25;6255802;22;20573;-77
2023/06/09 11:46:40;;;;;;;6.95;4.20;;;;;;;24.94;70.24;101648.25;6256085;22;20118;-76
2023/06/09 11:49:24;;;;;;;5.90;4.05;;;;;;;24.92;70.12;101645.72;6278713;22;20095;-74
2023/06/09 11:52:09;;;;;;;6.82;3.88;;;;;;;24.97;70.96;101648.00;6271817;22;20360;-74
2023/06/09 11:54:53;;;;;;;6.90;4.15;;;;;;;24.98;69.43;101646.13;6278656;22;20023;-74
2023/06/09 11:57:37;;;;;;;5.30;3.80;;;;;;;24.97;69.79;101637.16;6261604;22;20577;-75
2023/06/09 12:00:26;;;;;;;5.80;3.92;;;;;;;24.95;68.18;101645.41;6280304;22;20058;-78
2023/06/09 12:03:12;;;;;;;6.95;4.13;;;;;;;25.04;68.27;101640.13;6276226;22;20069;-75
2023/06/09 12:05:59;;;;;;;5.93;4.30;;;;;;;25.18;68.95;101636.09;6278194;22;20014;-80
2023/06/09 12:08:43;;;;;;;5.53;3.78;;;;;;;25.17;69.03;101634.41;6255782;22;20078;-80
2023/06/09 12:11:28;;;;;;;8.05;4.20;;;;;;;25.19;67.74;101630.56;6218532;22;20038;-80
2023/06/09 12:14:12;;;;;;;6.90;3.85;;;;;;;25.16;67.53;101635.41;6257792;22;20039;-81
2023/06/09 12:16:56;;;;;;;7.32;4.10;;;;;;;25.17;67.62;101631.69;6256517;22;20015;-81
2023/06/09 12:19:44;;;;;;;7.50;3.95;;;;;;;25.19;67.09;101624.25;6245849;22;20027;-80
2023/06/09 12:22:37;;;;;;;8.15;3.90;;;;;;;25.25;63.70;101626.38;6249565;22;20035;-81
2023/06/09 12:25:52;;;;;;;7.70;3.80;;;;;;;25.23;68.01;101625.69;6278119;22;20035;-81
2023/06/09 12:28:36;;;;;;;6.85;4.13;;;;;;;25.33;67.32;101620.22;6264449;22;20073;-79
2023/06/09 12:31:23;;;;;;;6.85;3.88;;;;;;;25.38;66.76;101619.78;6282666;22;20529;-82
2023/06/09 12:34:07;;;;;;;6.50;4.55;;;;;;;25.42;66.31;101619.34;6253187;22;20110;-82
2023/06/09 12:36:59;;;;;;;8.98;4.38;;;;;;;25.45;66.13;101618.19;6179241;23;20031;-78
2023/06/09 12:39:45;;;;;;;5.60;4.03;;;;;;;25.53;66.15;101621.03;6183174;23;20079;-77
2023/06/09 12:43:08;;;;;;;6.03;4.07;;;;;;;25.55;65.00;101624.41;6199654;23;20036;-82